Time;durP1;ratioP1;P1;durP2;ratioP2;P2;SDS_P1;SDS_P2;PMS_P1;PMS_P2;Temp;Humidity;BMP_temperature;BMP_pressure;BME280_temperature;BME280_humidity;BME280_pressure;Samples;Min_cycle;Max_cycle;Signal;HPM_P1;HPM_P2
2022/08/10 03:34:06;;;;;;;10.98;7.00;;;12.30;99.90;;;;;;6127046;23;20073;-92
2022/08/10 03:37:10;;;;;;;;;;;;;;;;;;;;;
2022/08/10 03:40:15;;;;;;;;;;;;;;;;;;;;;
2022/08/10 04:03:43;;;;;;;11.75;8.30;;;12.70;99.90;;;;;;6233204;22;20482;-91
2022/08/10 04:10:23;;;;;;;7.75;6.80;;;12.80;99.90;;;;;;6217310;23;20021;-92
2022/08/10 04:13:06;;;;;;;13.43;7.63;;;12.60;99.90;;;;;;6190580;23;20518;-93
2022/08/10 04:20:22;;;;;;;10.98;8.85;;;13.50;99.90;;;;;;6217230;23;20055;-93
2022/08/10 04:23:54;;;;;;;11.88;8.88;;;13.80;99.90;;;;;;6029810;23;20034;-92
2022/08/10 04:30:21;;;;;;;17.10;10.43;;;13.20;99.90;;;;;;6148570;23;20020;-91
2022/08/10 04:32:53;;;;;;;12.80;9.77;;;13.00;99.90;;;;;;6191231;23;20437;-93
2022/08/10 04:35:21;;;;;;;19.45;10.68;;;13.20;99.90;;;;;;6193767;23;20016;-92
2022/08/10 04:42:26;;;;;;;13.68;8.55;;;13.50;99.90;;;;;;6078815;23;20414;-95
2022/08/10 04:45:57;;;;;;;;;;;;;;;;;;;;;
2022/08/10 05:06:43;;;;;;;;;;;;;;;;;;;;;
2022/08/10 05:09:35;;;;;;;23.38;12.13;;;14.40;99.90;;;;;;6249228;23;20282;-86
2022/08/10 05:47:09;;;;;;;11.55;9.40;;;15.70;99.90;;;;;;6188746;22;20368;-93
2022/08/10 05:57:30;;;;;;;10.02;8.80;;;16.30;99.90;;;;;;6154207;23;20025;-88
2022/08/10 06:00:04;;;;;;;11.13;8.20;;;16.30;99.90;;;;;;6129955;23;20021;-88
2022/08/10 06:02:31;;;;;;;14.27;8.77;;;16.40;99.90;;;;;;6180802;23;20030;-89
2022/08/10 06:05:17;;;;;;;;;;;;;;;;;;;;;
2022/08/10 06:07:56;;;;;;;12.20;8.38;;;16.50;99.90;;;;;;6247200;23;20016;-90
2022/08/10 06:10:23;;;;;;;10.65;8.95;;;16.60;99.90;;;;;;6219584;23;20016;-86
2022/08/10 06:15:41;;;;;;;14.98;8.95;;;16.80;99.90;;;;;;6215234;23;20372;-91
2022/08/10 06:18:26;;;;;;;11.32;8.30;;;16.80;99.90;;;;;;6210911;23;20085;-85
2022/08/10 06:20:54;;;;;;;9.60;8.60;;;17.00;99.90;;;;;;6220433;23;20016;-89
2022/08/10 06:23:20;;;;;;;9.88;8.65;;;17.00;99.90;;;;;;6195227;23;20031;-89
2022/08/10 06:25:46;;;;;;;12.48;9.45;;;17.20;99.90;;;;;;6194752;23;20016;-89
2022/08/10 06:28:28;;;;;;;12.60;8.77;;;17.20;99.90;;;;;;6195720;23;20099;-90
2022/08/10 06:30:56;;;;;;;14.23;9.23;;;17.40;99.90;;;;;;6247275;23;20035;-91
2022/08/10 06:33:25;;;;;;;9.13;7.68;;;17.50;99.90;;;;;;6194520;23;20023;-89
2022/08/10 06:35:54;;;;;;;9.77;7.20;;;17.50;99.90;;;;;;6220641;23;20020;-90
2022/08/10 06:38:22;;;;;;;9.35;8.35;;;17.70;99.90;;;;;;6220541;23;20095;-90
2022/08/10 06:40:51;;;;;;;11.07;7.95;;;17.70;99.90;;;;;;6194462;23;20016;-86
2022/08/10 06:43:20;;;;;;;13.25;8.27;;;17.90;99.90;;;;;;6219955;23;20020;-86
2022/08/10 06:46:00;;;;;;;13.35;7.38;;;18.00;99.90;;;;;;6219343;23;20028;-93
2022/08/10 06:48:32;;;;;;;9.82;7.78;;;18.10;99.90;;;;;;6220654;23;20028;-88
2022/08/10 06:51:02;;;;;;;8.15;6.40;;;18.10;99.90;;;;;;6220224;23;20389;-89
2022/08/10 06:54:10;;;;;;;7.35;5.82;;;18.20;99.90;;;;;;6219613;23;20096;-91
2022/08/10 06:56:51;;;;;;;11.45;7.05;;;18.90;99.90;;;;;;6218696;23;20521;-92
2022/08/10 06:59:29;;;;;;;7.53;5.70;;;18.50;99.90;;;;;;6220186;23;20016;-87
2022/08/10 07:02:04;;;;;;;11.98;5.38;;;18.60;99.90;;;;;;6246235;23;20044;-87
2022/08/10 07:04:47;;;;;;;9.57;5.60;;;18.70;99.90;;;;;;6248513;23;20521;-89
2022/08/10 07:07:41;;;;;;;6.90;5.32;;;18.40;99.90;;;;;;6222078;23;20020;-87
2022/08/10 07:10:12;;;;;;;8.03;5.03;;;18.80;99.90;;;;;;6224374;23;20106;-93
2022/08/10 07:12:39;;;;;;;8.27;4.90;;;18.90;99.90;;;;;;6220429;23;20035;-91
2022/08/10 07:15:07;;;;;;;9.07;5.20;;;19.00;99.90;;;;;;6219446;23;20016;-91
2022/08/10 07:17:35;;;;;;;9.43;5.60;;;19.10;99.90;;;;;;6219913;23;20470;-89
2022/08/10 07:20:01;;;;;;;6.45;4.75;;;19.10;99.90;;;;;;6219813;23;20016;-91
2022/08/10 07:22:30;;;;;;;10.15;4.30;;;19.10;99.90;;;;;;6246194;23;20012;-88
2022/08/10 07:24:59;;;;;;;7.97;4.85;;;19.20;99.90;;;;;;6247007;23;20047;-92
2022/08/10 07:27:26;;;;;;;5.30;4.13;;;19.20;99.90;;;;;;6220006;23;20046;-90
2022/08/10 07:29:55;;;;;;;6.35;4.32;;;19.30;99.90;;;;;;6219852;23;20371;-88
2022/08/10 07:32:22;;;;;;;7.88;4.45;;;19.40;99.90;;;;;;6219589;23;20055;-86
2022/08/10 07:34:53;;;;;;;5.88;3.70;;;19.50;99.90;;;;;;6219509;23;20020;-89
2022/08/10 07:37:22;;;;;;;6.05;3.78;;;19.50;99.90;;;;;;6222040;23;20023;-89
2022/08/10 07:40:16;;;;;;;8.95;4.63;;;19.60;99.90;;;;;;6207696;23;20466;-89
2022/08/10 07:42:46;;;;;;;4.20;3.80;;;19.70;99.90;;;;;;6214887;23;20027;-88
2022/08/10 07:45:12;;;;;;;5.88;4.20;;;19.70;99.90;;;;;;6222012;23;20139;-90
2022/08/10 07:47:46;;;;;;;6.10;3.17;;;19.80;99.90;;;;;;6196355;23;20096;-90
2022/08/10 07:50:25;;;;;;;8.48;2.88;;;19.80;99.90;;;;;;6221497;23;20100;-90
2022/08/10 07:52:56;;;;;;;5.47;2.88;;;19.90;99.90;;;;;;6197013;23;20051;-94
2022/08/10 07:55:25;;;;;;;4.93;2.67;;;20.00;99.90;;;;;;6196421;23;20386;-92
2022/08/10 07:57:54;;;;;;;8.18;2.22;;;20.10;99.90;;;;;;6247882;23;20083;-87
2022/08/10 08:00:21;;;;;;;6.18;2.72;;;20.20;99.90;;;;;;6221416;23;20103;-89
2022/08/10 08:02:55;;;;;;;6.43;2.47;;;20.20;99.90;;;;;;6221982;23;20020;-89
2022/08/10 08:05:25;;;;;;;5.13;2.15;;;20.30;99.90;;;;;;6221892;23;20039;-89
2022/08/10 08:07:53;;;;;;;5.53;2.60;;;20.30;99.90;;;;;;6222250;23;20058;-85
2022/08/10 08:10:22;;;;;;;5.75;2.70;;;20.40;99.90;;;;;;6248089;23;20012;-87
2022/08/10 08:12:52;;;;;;;6.72;2.10;;;20.50;99.90;;;;;;6248712;23;20078;-91
2022/08/10 08:15:22;;;;;;;4.88;2.50;;;20.50;99.90;;;;;;6221109;23;20028;-88
2022/08/10 08:17:50;;;;;;;7.15;2.50;;;20.50;99.90;;;;;;6220679;23;20467;-92
2022/08/10 08:20:17;;;;;;;4.35;2.53;;;20.60;99.90;;;;;;6196509;23;20023;-91
2022/08/10 08:22:47;;;;;;;6.20;2.95;;;20.60;99.90;;;;;;6247992;23;20072;-89
2022/08/10 08:25:15;;;;;;;8.05;2.30;;;20.60;99.90;;;;;;6247533;23;20012;-90
2022/08/10 08:27:43;;;;;;;5.35;2.40;;;20.70;99.90;;;;;;6196726;23;20526;-91
2022/08/10 08:30:11;;;;;;;4.43;2.55;;;20.00;99.90;;;;;;6248821;23;20075;-87
2022/08/10 08:32:42;;;;;;;8.13;2.80;;;20.80;99.90;;;;;;6220988;23;20046;-87
2022/08/10 08:35:11;;;;;;;9.30;2.55;;;20.90;99.90;;;;;;6221605;23;20026;-89
2022/08/10 08:38:04;;;;;;;7.05;2.58;;;20.80;99.90;;;;;;6248161;23;20016;-91
2022/08/10 08:40:35;;;;;;;9.07;2.10;;;20.90;99.90;;;;;;6221623;23;20027;-90
2022/08/10 08:43:10;;;;;;;8.60;2.88;;;21.00;99.90;;;;;;6221471;23;20020;-85
2022/08/10 08:46:13;;;;;;;12.95;3.95;;;21.10;99.90;;;;;;6195416;22;20078;-87
2022/08/10 08:49:15;;;;;;;5.00;1.95;;;21.20;99.90;;;;;;6248273;23;20085;-90
2022/08/10 08:52:12;;;;;;;6.15;1.95;;;21.30;99.90;;;;;;6196006;23;20017;-90
2022/08/10 08:54:41;;;;;;;6.25;2.08;;;21.30;99.90;;;;;;6221456;23;20371;-90
2022/08/10 08:57:31;;;;;;;4.00;1.90;;;21.40;99.90;;;;;;6247557;23;20027;-88
2022/08/10 09:00:17;;;;;;;7.93;2.28;;;21.50;99.90;;;;;;6195298;23;20016;-89
2022/08/10 09:03:16;;;;;;;6.85;2.60;;;21.50;99.90;;;;;;6247740;23;20117;-88
2022/08/10 09:06:14;;;;;;;5.35;1.85;;;21.60;99.90;;;;;;6247777;23;20017;-87
2022/08/10 09:08:55;;;;;;;6.18;2.05;;;21.60;99.90;;;;;;6220640;23;20058;-88
2022/08/10 09:12:01;;;;;;;5.20;2.03;;;21.60;99.90;;;;;;6220861;23;20020;-89
2022/08/10 09:14:39;;;;;;;6.20;2.05;;;21.70;99.90;;;;;;6093160;23;20028;-89
2022/08/10 09:17:28;;;;;;;13.98;2.35;;;21.70;99.90;;;;;;6220969;23;20019;-87
2022/08/10 09:20:04;;;;;;;6.30;1.92;;;21.80;99.90;;;;;;6224427;23;20459;-89
2022/08/10 09:22:56;;;;;;;6.93;1.90;;;21.80;99.90;;;;;;6194911;23;20031;-88
2022/08/10 09:25:25;;;;;;;10.20;1.55;;;22.00;99.90;;;;;;6247393;23;20008;-87
2022/08/10 09:28:36;;;;;;;5.65;2.20;;;22.00;99.90;;;;;;6246971;23;20024;-87
2022/08/10 09:31:06;;;;;;;6.75;1.67;;;22.20;99.90;;;;;;6246735;23;20024;-86
2022/08/10 09:34:12;;;;;;;3.70;2.00;;;22.20;99.90;;;;;;6247523;23;20016;-90
2022/08/10 09:37:01;;;;;;;4.55;2.08;;;22.30;99.90;;;;;;6213920;23;20020;-86
2022/08/10 09:39:48;;;;;;;3.83;1.63;;;22.40;99.90;;;;;;6195009;23;20016;-83
2022/08/10 09:42:21;;;;;;;6.15;1.90;;;22.50;99.90;;;;;;6246550;23;20020;-84
2022/08/10 09:45:14;;;;;;;4.45;1.80;;;22.50;99.90;;;;;;6247236;23;20044;-86
2022/08/10 09:47:55;;;;;;;5.95;1.80;;;22.50;99.90;;;;;;6246410;22;20035;-86
2022/08/10 09:50:50;;;;;;;6.63;1.42;;;22.60;99.90;;;;;;6194656;23;20027;-87
2022/08/10 09:53:33;;;;;;;5.90;1.50;;;22.60;99.90;;;;;;6246726;23;20570;-88
2022/08/10 09:56:10;;;;;;;5.25;1.52;;;22.60;99.90;;;;;;6194811;23;20043;-85
2022/08/10 09:59:14;;;;;;;5.70;1.70;;;22.70;99.90;;;;;;6247153;23;20035;-84
2022/08/10 10:01:52;;;;;;;4.72;1.70;;;22.70;99.90;;;;;;6220206;23;20016;-85
2022/08/10 10:04:38;;;;;;;6.50;1.75;;;22.80;99.90;;;;;;6219488;23;20125;-84
2022/08/10 10:07:07;;;;;;;3.45;1.52;;;22.90;99.90;;;;;;6246477;23;20099;-88
2022/08/10 10:09:35;;;;;;;7.63;1.60;;;22.90;99.90;;;;;;6194300;23;20020;-85
2022/08/10 10:12:24;;;;;;;3.17;1.58;;;22.90;99.90;;;;;;6220086;23;20143;-90
2022/08/10 10:15:20;;;;;;;3.88;1.27;;;23.00;99.90;;;;;;6194980;23;20031;-83
2022/08/10 10:18:10;;;;;;;3.78;1.60;;;23.20;99.90;;;;;;6246156;23;20022;-88
2022/08/10 10:20:58;;;;;;;4.20;1.50;;;23.20;99.90;;;;;;6220334;23;20086;-86
2022/08/10 10:23:54;;;;;;;8.02;1.48;;;23.20;99.90;;;;;;6246579;23;20015;-86
2022/08/10 10:26:26;;;;;;;2.25;1.02;;;23.20;99.90;;;;;;6245810;23;20048;-88
2022/08/10 10:29:23;;;;;;;3.75;1.30;;;23.30;99.90;;;;;;6246353;23;20444;-86
2022/08/10 10:31:56;;;;;;;4.03;1.38;;;23.30;99.90;;;;;;6218487;23;20020;-86
2022/08/10 10:34:42;;;;;;;3.03;1.23;;;23.30;99.90;;;;;;6246972;23;20015;-86
2022/08/10 10:37:10;;;;;;;1.80;1.10;;;23.40;99.90;;;;;;6246596;23;20348;-85
2022/08/10 10:39:43;;;;;;;8.07;1.13;;;23.40;99.90;;;;;;6219474;23;20093;-86
2022/08/10 10:42:39;;;;;;;2.40;1.30;;;23.50;99.90;;;;;;6219339;23;20081;-86
2022/08/10 10:45:18;;;;;;;2.42;1.23;;;23.60;99.90;;;;;;6245675;23;20031;-85
2022/08/10 10:47:52;;;;;;;5.65;1.67;;;23.60;99.90;;;;;;6244362;23;20344;-85
2022/08/10 10:50:23;;;;;;;;;;;23.70;99.90;;;;;;6221321;23;20074;-88
2022/08/10 10:53:16;;;;;;;2.10;0.93;;;23.60;99.90;;;;;;6219719;23;20276;-85
2022/08/10 10:56:00;;;;;;;1.90;0.95;;;23.70;99.90;;;;;;6244537;23;20024;-85
2022/08/10 10:58:57;;;;;;;2.22;1.05;;;23.70;99.90;;;;;;6245417;23;20023;-87
2022/08/10 11:01:56;;;;;;;2.47;1.10;;;23.00;99.90;;;;;;6220116;23;20436;-85
2022/08/10 11:04:48;;;;;;;3.40;1.15;;;23.90;99.90;;;;;;6184628;22;20348;-84
2022/08/10 11:07:23;;;;;;;3.47;1.13;;;23.90;99.90;;;;;;6245446;22;20023;-86
2022/08/10 11:09:57;;;;;;;2.25;0.90;;;24.00;99.90;;;;;;6219816;23;20016;-87
2022/08/10 11:12:40;;;;;;;4.18;1.05;;;24.00;99.90;;;;;;6245358;23;20020;-86
2022/08/10 11:15:12;;;;;;;8.65;1.60;;;24.10;99.90;;;;;;6245981;22;20016;-86
2022/08/10 11:18:32;;;;;;;6.70;1.27;;;24.10;99.90;;;;;;6246230;22;20019;-86
2022/08/10 11:21:20;;;;;;;2.85;1.00;;;24.20;99.90;;;;;;6137586;23;20020;-85
2022/08/10 11:24:04;;;;;;;5.45;1.20;;;24.20;99.90;;;;;;6246407;22;20019;-85
2022/08/10 11:26:34;;;;;;;;;;;24.30;99.90;;;;;;6246917;23;20382;-86
2022/08/10 11:29:12;;;;;;;4.22;1.23;;;24.30;98.10;;;;;;6244166;23;19919;-86
2022/08/10 11:31:54;;;;;;;1.80;1.10;;;24.30;99.70;;;;;;6219111;23;20076;-84
2022/08/10 11:34:59;;;;;;;1.20;0.80;;;24.40;99.80;;;;;;6244046;23;20028;-85
2022/08/10 11:37:43;;;;;;;2.55;0.85;;;24.40;98.70;;;;;;6245536;22;20047;-87
2022/08/10 11:40:23;;;;;;;7.43;1.20;;;24.50;99.20;;;;;;6245772;22;20517;-84
2022/08/10 11:43:16;;;;;;;2.00;0.85;;;24.50;98.50;;;;;;6246124;22;20023;-85
2022/08/10 11:45:46;;;;;;;5.65;1.17;;;24.70;98.00;;;;;;6245687;22;20012;-86
2022/08/10 11:48:41;;;;;;;2.03;0.93;;;24.60;97.50;;;;;;6245601;23;20127;-89
2022/08/10 11:51:17;;;;;;;2.00;0.80;;;24.70;97.00;;;;;;6218220;23;20463;-84
2022/08/10 11:57:23;;;;;;;1.85;0.82;;;24.10;96.70;;;;;;6156323;23;20035;-86
2022/08/10 11:59:59;;;;;;;4.45;0.98;;;24.90;97.30;;;;;;6218744;23;20012;-86
2022/08/10 12:02:43;;;;;;;2.58;1.08;;;24.90;96.80;;;;;;6216787;22;20016;-89
2022/08/10 12:07:57;;;;;;;4.00;1.38;;;25.00;95.60;;;;;;6245761;23;20035;-86
2022/08/10 12:10:25;;;;;;;2.75;0.98;;;24.90;95.10;;;;;;6218383;23;20016;-88
2022/08/10 12:13:01;;;;;;;1.30;0.98;;;25.00;95.50;;;;;;6219166;23;20388;-89
2022/08/10 12:15:42;;;;;;;5.20;1.60;;;25.10;95.70;;;;;;6194364;23;20016;-87
2022/08/10 12:18:29;;;;;;;1.75;1.05;;;25.10;95.60;;;;;;6218813;23;20448;-88
2022/08/10 12:20:59;;;;;;;5.00;1.30;;;25.10;93.80;;;;;;6219245;23;20020;-88
2022/08/10 12:23:42;;;;;;;2.95;0.82;;;25.10;93.70;;;;;;6245626;23;20035;-87
2022/08/10 12:26:21;;;;;;;3.85;1.48;;;25.10;93.80;;;;;;6220329;23;20317;-87
2022/08/10 12:29:04;;;;;;;3.45;0.90;;;25.20;93.20;;;;;;6219320;23;20138;-89
2022/08/10 12:32:06;;;;;;;3.95;1.45;;;25.10;94.10;;;;;;6195672;23;20336;-88
2022/08/10 12:34:48;;;;;;;3.80;0.70;;;25.20;94.20;;;;;;6247655;23;20024;-86
2022/08/10 12:37:21;;;;;;;6.07;0.73;;;25.20;93.70;;;;;;6220625;23;20012;-88
2022/08/10 12:39:58;;;;;;;4.00;0.90;;;25.30;93.00;;;;;;6222248;23;20047;-89
2022/08/10 12:42:38;;;;;;;5.05;0.77;;;25.40;93.20;;;;;;6222926;23;20087;-88
2022/08/10 12:45:21;;;;;;;2.47;0.98;;;25.40;93.10;;;;;;6220344;23;20099;-87
2022/08/10 12:48:09;;;;;;;3.42;1.52;;;25.40;92.70;;;;;;6247523;23;20016;-86
2022/08/10 12:50:58;;;;;;;1.50;0.85;;;25.50;92.40;;;;;;6247794;23;20035;-86
2022/08/10 12:53:47;;;;;;;3.67;1.00;;;25.50;91.10;;;;;;6219273;23;20020;-85
2022/08/10 12:56:28;;;;;;;3.40;1.15;;;25.50;91.90;;;;;;6196018;23;20101;-86
2022/08/10 12:58:55;;;;;;;7.57;2.35;;;25.50;92.20;;;;;;6220090;23;20016;-85
2022/08/10 13:01:42;;;;;;;1.75;0.80;;;25.50;92.10;;;;;;6195858;23;20595;-86
2022/08/10 13:04:13;;;;;;;1.40;0.90;;;25.70;91.50;;;;;;6195580;23;20336;-86
2022/08/10 13:06:44;;;;;;;1.73;1.10;;;25.70;91.20;;;;;;6204625;23;20047;-86
2022/08/10 13:09:14;;;;;;;4.30;0.80;;;25.70;90.70;;;;;;6220349;23;20095;-87
2022/08/10 13:11:53;;;;;;;2.70;0.75;;;25.70;90.50;;;;;;6221223;23;20016;-87
2022/08/10 13:14:44;;;;;;;4.95;0.95;;;25.70;89.20;;;;;;6247097;23;20043;-85
2022/08/10 13:17:12;;;;;;;1.08;0.70;;;25.80;90.10;;;;;;6206764;23;20340;-85
2022/08/10 13:19:44;;;;;;;1.42;0.90;;;25.80;90.20;;;;;;6194786;23;20024;-86
2022/08/10 13:22:14;;;;;;;3.00;1.00;;;25.80;89.10;;;;;;6247320;23;20012;-88
2022/08/10 13:24:44;;;;;;;3.97;0.82;;;26.90;90.30;;;;;;6220048;23;20020;-86
2022/08/10 13:27:12;;;;;;;3.85;1.10;;;25.80;90.50;;;;;;6220076;23;20092;-84
2022/08/10 13:29:53;;;;;;;1.67;0.85;;;25.90;90.90;;;;;;6220544;23;20023;-88
2022/08/10 13:32:28;;;;;;;2.13;0.90;;;26.00;90.50;;;;;;6247439;23;20016;-86
2022/08/10 13:35:21;;;;;;;3.22;1.00;;;26.00;91.00;;;;;;6220689;23;20239;-91
2022/08/10 13:37:48;;;;;;;5.15;1.10;;;25.50;90.40;;;;;;6220401;23;20016;-89
2022/08/10 13:40:18;;;;;;;2.83;0.93;;;26.00;90.20;;;;;;6220351;23;20016;-88
2022/08/10 13:42:52;;;;;;;1.73;1.10;;;26.10;90.10;;;;;;6225562;23;20017;-88
2022/08/10 13:45:22;;;;;;;;;;;26.10;87.90;;;;;;6222317;23;20027;-91
2022/08/10 13:48:10;;;;;;;2.00;0.98;;;26.10;88.70;;;;;;6195126;23;20022;-86
2022/08/10 13:50:38;;;;;;;2.30;0.93;;;26.20;87.80;;;;;;6220465;23;20024;-88
2022/08/10 13:53:12;;;;;;;7.15;1.00;;;26.20;88.90;;;;;;6220397;23;20024;-86
2022/08/10 13:55:45;;;;;;;2.17;0.93;;;26.10;89.60;;;;;;6194724;23;20087;-84
2022/08/10 13:58:11;;;;;;;2.10;1.00;;;26.20;89.40;;;;;;6194580;23;20078;-86
2022/08/10 14:00:40;;;;;;;2.72;1.17;;;26.30;90.30;;;;;;6247317;23;20012;-86
2022/08/10 14:03:14;;;;;;;3.25;1.23;;;26.30;88.40;;;;;;6246495;23;20095;-85
2022/08/10 14:05:46;;;;;;;7.13;1.30;;;26.40;86.90;;;;;;6246727;22;20444;-85
2022/08/10 14:08:14;;;;;;;3.15;1.20;;;26.40;87.70;;;;;;6247034;23;20081;-86
2022/08/10 14:10:42;;;;;;;1.67;1.23;;;26.40;86.50;;;;;;6246492;23;20448;-85
2022/08/10 14:13:11;;;;;;;2.30;0.90;;;26.40;86.20;;;;;;6219978;23;20016;-89
2022/08/10 14:15:38;;;;;;;2.45;1.20;;;26.40;85.00;;;;;;6194605;23;20385;-87
2022/08/10 14:18:06;;;;;;;1.30;0.75;;;26.50;86.20;;;;;;6219831;23;20091;-88
2022/08/10 14:20:35;;;;;;;5.70;1.75;;;25.60;84.70;;;;;;6246175;23;20027;-86
2022/08/10 14:23:02;;;;;;;4.90;1.20;;;26.70;85.70;;;;;;6219116;23;20398;-86
2022/08/10 14:25:30;;;;;;;4.18;1.27;;;26.70;86.60;;;;;;6246702;23;20444;-86
2022/08/10 14:28:03;;;;;;;2.28;1.00;;;26.80;85.50;;;;;;6219833;23;20024;-87
2022/08/10 14:30:33;;;;;;;6.75;1.00;;;26.50;84.90;;;;;;6219824;23;20018;-87
2022/08/10 14:33:22;;;;;;;3.33;0.93;;;26.80;84.80;;;;;;6220325;23;20020;-91
2022/08/10 14:35:49;;;;;;;2.95;0.90;;;26.80;84.50;;;;;;6200465;23;20095;-87
2022/08/10 14:38:18;;;;;;;4.22;1.10;;;26.80;83.60;;;;;;6219234;23;20020;-88
2022/08/10 14:40:49;;;;;;;4.32;1.83;;;26.80;83.50;;;;;;6219853;23;20442;-94
2022/08/10 14:43:23;;;;;;;2.78;0.95;;;26.90;83.40;;;;;;6221777;23;20087;-89
2022/08/10 14:46:18;;;;;;;1.67;0.80;;;27.00;83.80;;;;;;6194947;23;20095;-91
2022/08/10 14:48:52;;;;;;;2.42;0.90;;;27.10;81.70;;;;;;6190292;23;20016;-89
2022/08/10 14:51:24;;;;;;;3.20;0.90;;;27.10;82.50;;;;;;6220495;23;20027;-90
2022/08/10 14:53:54;;;;;;;4.45;1.38;;;27.10;80.60;;;;;;6219728;23;20016;-92
2022/08/10 14:56:26;;;;;;;6.85;0.98;;;27.20;80.70;;;;;;6219793;23;20016;-88
2022/08/10 14:58:58;;;;;;;5.40;1.02;;;27.30;79.90;;;;;;6246983;23;20328;-89
2022/08/10 15:01:24;;;;;;;1.15;0.70;;;27.40;80.20;;;;;;6220796;23;20016;-89
2022/08/10 15:04:00;;;;;;;7.25;1.13;;;27.30;80.10;;;;;;6248103;23;20396;-90
2022/08/10 15:06:32;;;;;;;2.97;1.13;;;27.40;77.90;;;;;;6194003;23;20444;-88
2022/08/10 15:09:06;;;;;;;2.38;1.10;;;27.40;79.20;;;;;;6246532;23;20098;-87
2022/08/10 15:11:37;;;;;;;4.53;1.00;;;27.40;79.30;;;;;;6195034;23;20054;-90
2022/08/10 15:14:05;;;;;;;3.30;1.25;;;27.40;79.00;;;;;;6193495;23;20026;-87
2022/08/10 15:16:33;;;;;;;4.93;1.20;;;27.50;79.30;;;;;;6220301;23;20343;-87
2022/08/10 15:19:05;;;;;;;6.35;1.30;;;27.40;80.20;;;;;;6195066;23;20016;-91
2022/08/10 15:21:40;;;;;;;2.40;0.95;;;27.50;80.00;;;;;;6195602;23;20017;-91
2022/08/10 15:27:19;;;;;;;1.98;0.88;;;27.40;80.70;;;;;;6239760;23;20024;-92
2022/08/10 15:30:09;;;;;;;2.85;0.88;;;26.50;79.00;;;;;;6193961;23;20395;-91
2022/08/10 15:44:02;;;;;;;1.85;0.80;;;27.20;80.50;;;;;;6248225;22;20024;-90
2022/08/10 15:47:21;;;;;;;3.22;0.80;;;26.50;79.70;;;;;;6196045;23;20023;-91
2022/08/10 16:00:10;;;;;;;5.47;0.90;;;27.20;80.80;;;;;;6095194;23;20017;-90
2022/08/10 16:09:20;;;;;;;6.70;1.20;;;27.20;80.90;;;;;;6246304;22;20020;-91
2022/08/10 16:12:20;;;;;;;1.90;1.13;;;27.10;82.10;;;;;;6247517;23;20090;-86
2022/08/10 16:15:05;;;;;;;4.78;1.10;;;27.10;85.90;;;;;;6220477;23;20051;-94
2022/08/10 16:18:19;;;;;;;3.25;1.52;;;26.30;88.40;;;;;;6221491;23;20020;-90
2022/08/10 16:23:59;;;;;;;3.17;1.27;;;26.70;91.40;;;;;;6237809;23;20025;-87
2022/08/10 16:26:36;;;;;;;8.68;2.60;;;26.90;92.00;;;;;;6221716;23;20047;-88
2022/08/10 16:29:16;;;;;;;4.85;1.52;;;27.10;91.30;;;;;;6249115;23;20095;-90
2022/08/10 16:31:57;;;;;;;6.43;2.67;;;27.00;90.90;;;;;;6222200;23;20043;-91
2022/08/10 16:34:27;;;;;;;3.45;1.70;;;26.90;91.20;;;;;;6196599;23;20023;-88
2022/08/10 16:37:07;;;;;;;4.63;1.50;;;26.80;91.50;;;;;;6197684;23;20030;-90
2022/08/10 16:40:01;;;;;;;3.45;1.60;;;26.70;91.60;;;;;;6230065;23;20023;-95
2022/08/10 16:42:35;;;;;;;2.70;1.52;;;26.60;92.20;;;;;;6196040;23;20020;-88
2022/08/10 16:45:06;;;;;;;5.78;1.60;;;26.30;93.20;;;;;;6247965;23;20008;-90
2022/08/10 16:47:36;;;;;;;7.50;1.70;;;26.10;94.00;;;;;;6221548;23;20099;-87
2022/08/10 16:50:45;;;;;;;4.50;1.10;;;25.90;94.90;;;;;;6196180;23;20020;-94
2022/08/10 16:53:14;;;;;;;2.30;1.55;;;26.10;95.50;;;;;;6193209;23;20016;-88
2022/08/10 16:55:58;;;;;;;3.13;1.33;;;25.50;96.10;;;;;;6248153;23;20055;-94
2022/08/10 16:58:28;;;;;;;1.85;1.17;;;25.40;96.50;;;;;;6221556;23;20422;-92
2022/08/10 17:01:17;;;;;;;4.80;1.30;;;25.20;97.30;;;;;;6198122;23;20024;-90
2022/08/10 17:03:50;;;;;;;3.20;1.30;;;25.10;97.70;;;;;;6197827;23;20051;-89
2022/08/10 17:06:33;;;;;;;4.03;1.33;;;25.00;98.20;;;;;;6196773;23;20024;-90
2022/08/10 17:09:05;;;;;;;11.35;2.42;;;25.00;98.40;;;;;;6221260;23;20062;-90
2022/08/10 17:11:35;;;;;;;5.20;1.50;;;24.90;98.50;;;;;;6247019;22;20028;-86
2022/08/10 17:14:05;;;;;;;8.18;1.40;;;24.90;98.80;;;;;;6248014;23;20038;-87
2022/08/10 17:16:39;;;;;;;5.57;1.63;;;24.80;99.20;;;;;;6220847;23;20047;-88
2022/08/10 17:19:13;;;;;;;5.10;1.40;;;24.70;99.40;;;;;;6221493;23;20024;-89
2022/08/10 17:21:44;;;;;;;5.55;1.60;;;24.60;99.80;;;;;;6221821;23;20444;-93
2022/08/10 17:24:11;;;;;;;5.32;1.73;;;24.70;99.90;;;;;;6222153;23;20455;-90
2022/08/10 17:26:38;;;;;;;5.47;2.00;;;24.50;99.90;;;;;;6195814;23;20012;-87
2022/08/10 17:29:19;;;;;;;6.90;1.50;;;24.40;99.90;;;;;;6221652;23;20020;-91
2022/08/10 17:31:52;;;;;;;4.43;1.40;;;24.40;99.90;;;;;;6197179;23;20043;-87
2022/08/10 17:34:28;;;;;;;4.45;1.30;;;24.30;99.90;;;;;;6195778;23;20020;-92
2022/08/10 17:37:06;;;;;;;5.18;1.30;;;24.30;99.90;;;;;;6221175;23;20023;-92
2022/08/10 17:39:48;;;;;;;15.73;1.77;;;23.60;99.90;;;;;;6219929;23;20016;-90
2022/08/10 17:42:25;;;;;;;2.22;1.38;;;23.10;99.90;;;;;;6221611;23;20020;-87
2022/08/10 17:44:57;;;;;;;4.93;1.52;;;24.00;99.90;;;;;;6220963;23;20386;-93
2022/08/10 17:47:26;;;;;;;4.00;1.55;;;23.10;99.90;;;;;;6195095;23;20054;-91
2022/08/10 17:50:00;;;;;;;5.20;1.30;;;23.90;99.90;;;;;;6221537;23;20012;-93
2022/08/10 17:52:34;;;;;;;6.03;1.60;;;23.80;99.90;;;;;;6248189;23;20066;-90
2022/08/10 17:55:02;;;;;;;;;;;23.90;99.90;;;;;;6196937;23;20087;-90
2022/08/10 17:57:50;;;;;;;5.00;1.45;;;23.50;99.90;;;;;;6195851;23;19938;-92
2022/08/10 18:00:16;;;;;;;4.85;1.40;;;23.80;99.90;;;;;;6196598;23;20020;-89
2022/08/10 18:02:45;;;;;;;6.82;1.65;;;23.70;99.90;;;;;;6220899;23;20087;-90
2022/08/10 18:05:20;;;;;;;4.47;1.15;;;23.70;99.90;;;;;;6196412;23;20375;-94
2022/08/10 18:08:00;;;;;;;6.20;1.52;;;23.90;99.90;;;;;;6220353;23;20020;-91
2022/08/10 18:10:27;;;;;;;7.50;1.30;;;23.80;99.90;;;;;;6198792;23;20513;-91
2022/08/10 18:12:58;;;;;;;4.20;1.20;;;23.70;99.90;;;;;;6196724;23;20024;-90
2022/08/10 18:15:26;;;;;;;5.90;2.10;;;23.60;99.90;;;;;;6220467;23;20023;-89
2022/08/10 18:18:00;;;;;;;4.13;1.42;;;23.40;99.90;;;;;;6247818;23;20333;-91
2022/08/10 18:24:39;;;;;;;3.50;1.35;;;23.10;99.90;;;;;;6215285;23;19915;-95
2022/08/10 18:27:17;;;;;;;5.72;1.20;;;22.30;99.90;;;;;;6209799;23;20016;-94
2022/08/10 18:29:50;;;;;;;3.10;1.33;;;22.80;99.90;;;;;;6196278;23;20021;-89
2022/08/10 18:32:50;;;;;;;;;;;;;;;;;;;;;
2022/08/10 18:36:11;;;;;;;2.93;1.47;;;22.60;99.90;;;;;;6222682;23;20305;-95
2022/08/10 18:46:40;;;;;;;7.32;1.33;;;22.40;99.90;;;;;;6222798;22;20038;-91
2022/08/10 18:49:34;;;;;;;3.97;1.65;;;22.10;99.90;;;;;;6081225;23;20036;-92
2022/08/10 18:52:34;;;;;;;5.28;1.58;;;22.10;99.90;;;;;;6154171;23;20027;-93
2022/08/10 18:55:33;;;;;;;4.50;1.60;;;21.90;99.90;;;;;;6218993;23;20098;-95
2022/08/10 18:58:58;;;;;;;;;;;;;;;;;;;;;
2022/08/10 19:02:39;;;;;;;3.30;1.85;;;21.70;99.90;;;;;;6101775;23;20018;-95
2022/08/10 19:07:55;;;;;;;4.78;1.92;;;21.50;99.90;;;;;;6251696;23;20050;-89
2022/08/10 19:14:47;;;;;;;9.80;1.65;;;21.00;99.90;;;;;;6219048;23;20523;-93
2022/08/10 19:17:58;;;;;;;6.63;1.90;;;21.20;99.90;;;;;;6203493;23;20394;-92
2022/08/10 19:20:49;;;;;;;13.10;2.08;;;21.50;99.90;;;;;;6192934;23;20016;-96
2022/08/10 19:24:09;;;;;;;;;;;;;;;;;;;;;
2022/08/10 19:30:59;;;;;;;7.10;1.60;;;20.30;99.90;;;;;;6220700;22;20024;-96
2022/08/10 19:37:40;;;;;;;7.80;2.33;;;21.00;99.90;;;;;;6094353;23;20344;-95
2022/08/10 19:40:52;;;;;;;6.53;1.92;;;21.20;99.90;;;;;;6168808;23;20017;-91
2022/08/10 19:43:58;;;;;;;8.68;2.50;;;20.80;99.90;;;;;;6176035;23;20515;-94
2022/08/10 19:50:07;;;;;;;;;;;20.30;99.90;;;;;;6204936;22;20028;-96
2022/08/10 19:52:51;;;;;;;3.67;1.90;;;20.20;99.90;;;;;;6226165;22;19915;-94
2022/08/10 19:59:22;;;;;;;3.03;1.98;;;19.20;99.90;;;;;;6127547;23;20022;-96
2022/08/10 20:01:58;;;;;;;7.63;2.00;;;19.90;99.90;;;;;;6082673;23;20021;-96
2022/08/10 20:05:03;;;;;;;6.80;1.83;;;19.80;99.90;;;;;;6107193;23;20021;-95
2022/08/10 20:08:53;;;;;;;5.68;2.38;;;19.60;99.90;;;;;;6072276;23;20100;-96
2022/08/10 20:11:26;;;;;;;7.57;2.25;;;19.70;99.90;;;;;;6092137;23;20057;-95
2022/08/10 20:21:23;;;;;;;3.65;2.20;;;20.00;99.90;;;;;;5905513;24;20048;-95
2022/08/10 20:34:42;;;;;;;3.50;2.55;;;19.40;99.90;;;;;;6046105;23;20031;-94
2022/08/10 20:56:22;;;;;;;6.90;2.95;;;19.10;99.90;;;;;;6252280;22;20032;-96
2022/08/10 21:14:51;;;;;;;6.28;3.08;;;18.10;99.90;;;;;;6256436;22;20043;-94
2022/08/10 23:09:54;;;;;;;;;;;;;;;;;;;;;
